createdAt,value
2023-02-03T00:04:21.873Z,88.03
2023-02-03T00:09:24.856Z,87.78
2023-02-03T00:14:28.954Z,87.44
2023-02-03T00:19:32.019Z,87.09
2023-02-03T00:24:34.966Z,86.72
2023-02-03T00:29:38.181Z,86.16
2023-02-03T00:34:41.021Z,85.95
2023-02-03T00:39:44.609Z,86.19
2023-02-03T00:44:48.737Z,86.31
2023-02-03T00:49:51.840Z,86.48
2023-02-03T00:54:54.924Z,86.70
2023-02-03T00:59:58.254Z,86.82
2023-02-03T01:05:01.109Z,87.11
2023-02-03T01:10:05.249Z,86.72
2023-02-03T01:15:08.758Z,86.77
2023-02-03T01:20:16.990Z,86.61
2023-02-03T01:25:22.298Z,86.28
2023-02-03T01:30:28.215Z,85.83
2023-02-03T01:35:31.506Z,86.20
2023-02-03T01:40:34.396Z,86.33
2023-02-03T01:45:37.610Z,86.39
2023-02-03T01:50:40.588Z,86.23
2023-02-03T01:55:47.043Z,86.13
2023-02-03T02:00:50.274Z,85.91
2023-02-03T02:06:04.429Z,85.34
2023-02-03T02:11:07.739Z,84.86
2023-02-03T02:16:26.833Z,84.52
2023-02-03T02:21:50.859Z,84.17
2023-02-03T02:27:10.875Z,81.48
2023-02-03T02:32:52.712Z,81.62
2023-02-03T02:38:24.928Z,80.99
2023-02-03T02:43:42.743Z,79.79
2023-02-03T02:48:55.356Z,79.12
2023-02-03T02:54:01.842Z,78.75
2023-02-03T02:59:06.322Z,78.74
2023-02-03T03:04:10.671Z,78.43
2023-02-03T03:09:19.383Z,78.88
2023-02-03T03:14:23.876Z,78.51
2023-02-03T03:19:36.172Z,79.28
2023-02-03T03:24:49.173Z,80.34
2023-02-03T03:29:57.919Z,80.62
2023-02-03T03:35:01.611Z,81.55
2023-02-03T03:40:18.799Z,81.89
2023-02-03T03:45:41.101Z,82.27
2023-02-03T03:50:54.599Z,82.71
2023-02-03T03:55:57.386Z,82.79
2023-02-03T04:01:02.960Z,83.13
2023-02-03T04:06:08.547Z,83.32
2023-02-03T04:11:11.552Z,83.47
2023-02-03T04:16:14.373Z,83.67
2023-02-03T04:21:17.355Z,83.88
2023-02-03T04:26:20.210Z,84.13
2023-02-03T04:31:23.696Z,84.24
2023-02-03T04:36:26.847Z,84.43
2023-02-03T04:41:29.639Z,84.83
2023-02-03T04:46:32.682Z,84.92
2023-02-03T04:51:35.604Z,85.07
2023-02-03T04:56:38.928Z,84.99
2023-02-03T05:01:41.847Z,85.03
2023-02-03T05:06:44.809Z,85.14
2023-02-03T05:11:48.460Z,85.13
2023-02-03T05:16:51.572Z,85.27
2023-02-03T05:21:54.829Z,85.27
2023-02-03T05:26:57.687Z,85.47
2023-02-03T05:32:03.023Z,85.64
2023-02-03T05:37:06.052Z,85.78
2023-02-03T05:42:09.500Z,86.10
2023-02-03T05:47:12.678Z,86.22
2023-02-03T05:52:15.484Z,86.48
2023-02-03T05:57:19.434Z,86.46
2023-02-03T06:02:22.314Z,86.42
2023-02-03T06:07:25.421Z,86.57
2023-02-03T06:12:29.444Z,86.48
2023-02-03T06:17:32.476Z,86.68
2023-02-03T06:22:35.513Z,86.57
2023-02-03T06:27:38.624Z,86.84
2023-02-03T06:32:41.477Z,86.90
2023-02-03T06:37:44.407Z,87.06
2023-02-03T06:42:47.944Z,87.39
2023-02-03T06:47:50.928Z,87.57
2023-02-03T06:52:53.835Z,87.55
2023-02-03T06:57:57.100Z,87.72
2023-02-03T07:03:00.109Z,88.00
2023-02-03T07:08:03.496Z,88.02
2023-02-03T07:13:06.865Z,88.14
2023-02-03T07:18:09.854Z,88.31
2023-02-03T07:23:12.710Z,88.45
2023-02-03T07:28:15.617Z,88.58
2023-02-03T07:33:18.492Z,88.42
2023-02-03T07:38:29.352Z,88.64
2023-02-03T07:43:32.390Z,88.44
2023-02-03T07:48:35.250Z,88.32
2023-02-03T07:53:38.537Z,88.37
2023-02-03T07:58:41.722Z,88.46
2023-02-03T08:03:44.725Z,88.59
2023-02-03T08:08:47.618Z,88.60
2023-02-03T08:13:51.174Z,88.37
2023-02-03T08:18:54.148Z,88.21
2023-02-03T08:23:57.145Z,88.14
2023-02-03T08:29:00.056Z,87.72
2023-02-03T08:34:03.076Z,87.55
2023-02-03T08:39:07.083Z,86.83
2023-02-03T08:44:10.042Z,86.12
2023-02-03T08:49:13.004Z,86.04
2023-02-03T08:54:15.949Z,85.59
2023-02-03T08:59:19.251Z,85.75
2023-02-03T09:04:25.533Z,85.62
2023-02-03T09:09:29.497Z,84.75
2023-02-03T09:14:33.221Z,84.44
2023-02-03T09:19:36.729Z,83.37
2023-02-03T09:24:39.806Z,82.53
2023-02-03T09:29:42.820Z,81.47
2023-02-03T09:34:45.796Z,79.47
2023-02-03T09:39:49.007Z,79.78
2023-02-03T09:45:13.310Z,78.96
2023-02-03T09:50:22.098Z,79.15
2023-02-03T09:55:39.757Z,78.61
2023-02-03T10:01:05.752Z,77.01
2023-02-03T10:06:30.664Z,74.48
2023-02-03T10:12:01.275Z,74.60
2023-02-03T10:17:20.474Z,74.53
2023-02-03T10:22:28.530Z,72.54
2023-02-03T10:27:32.439Z,71.11
2023-02-03T10:32:36.192Z,70.81
2023-02-03T10:37:45.744Z,68.42
2023-02-03T10:43:08.005Z,68.74
2023-02-03T10:48:15.684Z,69.50
2023-02-03T10:53:18.499Z,69.60
2023-02-03T10:58:28.138Z,70.57
2023-02-03T11:03:31.110Z,68.93
2023-02-03T11:08:35.978Z,67.55
2023-02-03T11:13:38.789Z,66.94
2023-02-03T11:19:11.665Z,67.14
2023-02-03T11:24:26.482Z,68.78
2023-02-03T11:29:31.569Z,68.72
2023-02-03T11:34:36.999Z,68.85
2023-02-03T11:39:39.901Z,68.60
2023-02-03T11:44:42.823Z,68.82
2023-02-03T11:50:10.384Z,68.71
2023-02-03T11:55:22.026Z,68.91
2023-02-03T12:00:37.896Z,68.85
2023-02-03T12:06:31.856Z,68.90
2023-02-03T12:12:20.774Z,68.20
2023-02-03T12:17:33.374Z,68.99
2023-02-03T12:23:30.397Z,69.03
2023-02-03T12:28:54.640Z,70.19
2023-02-03T12:34:12.585Z,69.27
2023-02-03T12:39:34.367Z,68.49
2023-02-03T12:45:06.150Z,68.56
2023-02-03T12:50:31.275Z,68.63
2023-02-03T12:55:39.462Z,68.58
2023-02-03T13:01:02.913Z,68.56
2023-02-03T13:06:34.936Z,68.89
2023-02-03T13:12:12.725Z,68.89
2023-02-03T13:17:24.685Z,69.15
2023-02-03T13:22:27.627Z,68.86
2023-02-03T13:28:45.596Z,69.21
2023-02-03T13:34:13.117Z,69.67
2023-02-03T13:39:41.621Z,70.43
2023-02-03T13:44:45.418Z,71.31
2023-02-03T13:50:01.658Z,72.19
2023-02-03T14:02:23.525Z,75.53
2023-02-03T14:07:38.192Z,76.40
2023-02-03T14:12:50.313Z,78.13
2023-02-03T14:17:55.526Z,78.96
2023-02-03T14:23:05.468Z,79.32
2023-02-03T14:28:15.213Z,80.30
2023-02-03T14:33:18.164Z,80.89
2023-02-03T14:38:21.026Z,81.30
2023-02-03T14:43:44.110Z,81.60
2023-02-03T14:49:30.764Z,82.42
2023-02-03T14:54:53.004Z,82.86
2023-02-03T15:00:22.454Z,82.72
2023-02-03T15:05:47.476Z,83.13
2023-02-03T15:10:50.433Z,83.74
2023-02-03T15:16:27.239Z,84.21
2023-02-03T15:21:30.194Z,84.20
2023-02-03T15:26:33.297Z,83.84
2023-02-03T15:31:48.993Z,84.23
2023-02-03T15:36:55.115Z,84.62
2023-02-03T15:41:59.240Z,84.73
2023-02-03T15:47:02.981Z,84.77
2023-02-03T15:52:19.508Z,84.97
2023-02-03T15:57:28.852Z,85.28
2023-02-03T16:02:39.034Z,85.31
2023-02-03T16:07:42.022Z,85.53
2023-02-03T16:12:44.843Z,85.73
2023-02-03T16:17:47.676Z,86.06
2023-02-03T16:23:19.431Z,86.27
2023-02-03T16:28:41.123Z,86.48
2023-02-03T16:34:08.321Z,86.85
2023-02-03T16:39:30.870Z,86.95
2023-02-03T16:44:52.534Z,86.70
2023-02-03T16:50:14.229Z,86.96
2023-02-03T16:55:17.105Z,87.25
2023-02-03T17:00:22.140Z,87.40
2023-02-03T17:05:25.210Z,87.81
2023-02-03T17:10:28.196Z,88.06
2023-02-03T17:15:31.359Z,88.03
2023-02-03T17:20:34.561Z,87.93
2023-02-03T17:25:39.205Z,88.05
2023-02-03T17:30:42.283Z,88.19
2023-02-03T17:35:45.484Z,88.17
2023-02-03T17:56:54.553Z,88.42
2023-02-03T18:01:57.454Z,88.49
2023-02-03T18:07:00.642Z,88.44
2023-02-03T18:12:03.982Z,88.46
2023-02-03T18:17:08.011Z,88.35
2023-02-03T18:22:10.980Z,88.42
2023-02-03T18:27:17.464Z,88.52
2023-02-03T18:32:20.898Z,88.46
2023-02-03T18:37:23.791Z,88.57
2023-02-03T18:42:26.660Z,88.63
2023-02-03T18:47:30.128Z,88.52
2023-02-03T18:52:34.996Z,88.87
2023-02-03T18:57:38.023Z,88.74
2023-02-03T19:02:41.337Z,88.92
2023-02-03T19:07:44.272Z,89.20
2023-02-03T19:12:47.151Z,89.27
2023-02-03T19:17:50.106Z,89.16
2023-02-03T19:22:54.412Z,89.19
2023-02-03T19:27:57.344Z,89.37
2023-02-03T19:33:00.140Z,89.43
2023-02-03T19:38:03.009Z,89.16
2023-02-03T19:43:05.841Z,89.53
2023-02-03T19:48:08.749Z,89.51
2023-02-03T19:53:13.948Z,89.16
2023-02-03T19:58:16.855Z,89.22
2023-02-03T20:03:20.017Z,89.14
2023-02-03T20:08:22.928Z,89.11
2023-02-03T20:13:25.919Z,89.19
2023-02-03T20:18:28.805Z,89.16
2023-02-03T20:23:31.885Z,89.30
2023-02-03T20:28:34.732Z,89.08
2023-02-03T20:34:15.174Z,89.16
2023-02-03T20:39:19.676Z,89.29
2023-02-03T20:44:23.576Z,89.45
2023-02-03T20:49:26.488Z,89.39
2023-02-03T20:54:29.849Z,89.39
2023-02-03T20:59:32.822Z,89.10
2023-02-03T21:04:57.087Z,89.16
2023-02-03T21:10:00.073Z,89.19
2023-02-03T21:15:03.129Z,89.19
2023-02-03T21:20:10.537Z,89.18
2023-02-03T21:25:28.376Z,89.14
2023-02-03T21:30:34.924Z,89.09
2023-02-03T21:35:38.488Z,89.28
2023-02-03T21:40:41.322Z,89.26
2023-02-03T21:45:44.922Z,89.18
2023-02-03T21:50:47.861Z,89.35
2023-02-03T21:55:50.858Z,89.02
2023-02-03T22:00:54.439Z,88.97
2023-02-03T22:06:09.843Z,89.13
2023-02-03T22:11:13.872Z,88.96
2023-02-03T22:16:17.316Z,89.07
2023-02-03T22:21:20.714Z,89.08
2023-02-03T22:26:23.765Z,88.99
2023-02-03T22:31:28.118Z,89.21
2023-02-03T22:36:31.087Z,89.27
2023-02-03T22:41:36.794Z,89.23
2023-02-03T22:46:39.653Z,89.40
2023-02-03T22:51:42.594Z,89.33
2023-02-03T22:56:45.530Z,89.14
2023-02-03T23:01:48.327Z,89.29
2023-02-03T23:06:51.164Z,89.21
2023-02-03T23:11:54.484Z,89.47
2023-02-03T23:16:57.386Z,89.53
2023-02-03T23:22:00.385Z,89.52
2023-02-03T23:27:04.524Z,89.74
2023-02-03T23:32:10.808Z,89.64
2023-02-03T23:37:13.724Z,89.84
2023-02-03T23:42:16.713Z,89.73
2023-02-03T23:47:19.594Z,90.00
2023-02-03T23:52:22.657Z,90.24
2023-02-03T23:57:25.521Z,90.39
